sensor_id;sensor_type;location;lat;lon;timestamp;pressure;altitude;pressure_sealevel;temperature;humidity
5679;BME280;2862;52.560;13.566;2023-04-30T00:09:40;101129.91;;;8.29;72.49
5679;BME280;2862;52.560;13.566;2023-04-30T00:19:44;101142.00;;;8.20;72.24
5679;BME280;2862;52.560;13.566;2023-04-30T00:29:47;101151.38;;;8.13;72.48
5679;BME280;2862;52.560;13.566;2023-04-30T00:39:51;101156.91;;;8.10;72.22
5679;BME280;2862;52.560;13.566;2023-04-30T00:49:55;101162.31;;;8.08;72.23
5679;BME280;2862;52.560;13.566;2023-04-30T00:59:59;101172.22;;;8.06;73.58
5679;BME280;2862;52.560;13.566;2023-04-30T01:10:03;101187.06;;;8.10;74.54
5679;BME280;2862;52.560;13.566;2023-04-30T01:20:09;101201.38;;;7.95;75.82
5679;BME280;2862;52.560;13.566;2023-04-30T01:30:16;101204.63;;;7.86;76.38
5679;BME280;2862;52.560;13.566;2023-04-30T01:40:23;101197.97;;;7.79;77.31
5679;BME280;2862;52.560;13.566;2023-04-30T01:50:36;101207.72;;;7.65;77.79
5679;BME280;2862;52.560;13.566;2023-04-30T02:00:41;101227.09;;;7.53;78.20
5679;BME280;2862;52.560;13.566;2023-04-30T02:10:45;101242.88;;;7.42;78.27
5679;BME280;2862;52.560;13.566;2023-04-30T02:20:48;101250.38;;;7.35;78.55
5679;BME280;2862;52.560;13.566;2023-04-30T02:30:52;101259.31;;;7.34;79.08
5679;BME280;2862;52.560;13.566;2023-04-30T02:40:55;101268.13;;;7.21;80.34
5679;BME280;2862;52.560;13.566;2023-04-30T02:51:00;101279.03;;;7.16;80.82
5679;BME280;2862;52.560;13.566;2023-04-30T03:01:03;101275.50;;;7.01;81.15
5679;BME280;2862;52.560;13.566;2023-04-30T03:11:07;101288.75;;;6.87;82.32
5679;BME280;2862;52.560;13.566;2023-04-30T03:21:10;101289.53;;;6.89;82.63
5679;BME280;2862;52.560;13.566;2023-04-30T03:31:14;101303.69;;;6.89;82.22
5679;BME280;2862;52.560;13.566;2023-04-30T03:41:18;101304.44;;;6.91;82.47
5679;BME280;2862;52.560;13.566;2023-04-30T03:51:22;101313.59;;;7.60;79.96
5679;BME280;2862;52.560;13.566;2023-04-30T04:01:26;101319.81;;;10.14;68.38
5679;BME280;2862;52.560;13.566;2023-04-30T04:11:31;101318.53;;;13.15;57.17
5679;BME280;2862;52.560;13.566;2023-04-30T04:21:35;101321.38;;;16.01;46.32
5679;BME280;2862;52.560;13.566;2023-04-30T04:31:46;101323.22;;;18.73;39.42
5679;BME280;2862;52.560;13.566;2023-04-30T04:41:53;101339.91;;;21.16;35.03
5679;BME280;2862;52.560;13.566;2023-04-30T04:51:58;101347.25;;;23.29;30.48
5679;BME280;2862;52.560;13.566;2023-04-30T05:02:02;101357.22;;;24.76;27.25
5679;BME280;2862;52.560;13.566;2023-04-30T05:12:07;101375.78;;;26.53;24.87
5679;BME280;2862;52.560;13.566;2023-04-30T05:22:10;101374.00;;;27.73;22.84
5679;BME280;2862;52.560;13.566;2023-04-30T05:32:15;101382.31;;;29.13;21.88
5679;BME280;2862;52.560;13.566;2023-04-30T05:42:18;101400.13;;;29.71;21.31
5679;BME280;2862;52.560;13.566;2023-04-30T05:52:22;101409.88;;;30.72;19.31
5679;BME280;2862;52.560;13.566;2023-04-30T06:02:26;101422.66;;;30.26;20.22
5679;BME280;2862;52.560;13.566;2023-04-30T06:12:30;101418.38;;;30.19;19.55
5679;BME280;2862;52.560;13.566;2023-04-30T06:22:33;101433.50;;;31.82;17.92
5679;BME280;2862;52.560;13.566;2023-04-30T06:32:38;101438.22;;;33.25;17.29
5679;BME280;2862;52.560;13.566;2023-04-30T06:42:41;101445.13;;;33.44;17.64
5679;BME280;2862;52.560;13.566;2023-04-30T06:52:47;101440.28;;;33.35;16.63
5679;BME280;2862;52.560;13.566;2023-04-30T07:02:50;101443.13;;;32.13;17.01
5679;BME280;2862;52.560;13.566;2023-04-30T07:12:54;101452.28;;;31.80;17.39
5679;BME280;2862;52.560;13.566;2023-04-30T07:22:58;101454.50;;;32.72;16.79
5679;BME280;2862;52.560;13.566;2023-04-30T07:33:02;101462.28;;;28.88;19.86
5679;BME280;2862;52.560;13.566;2023-04-30T07:43:05;101463.16;;;26.36;22.49
5679;BME280;2862;52.560;13.566;2023-04-30T07:53:09;101471.56;;;23.96;24.60
5679;BME280;2862;52.560;13.566;2023-04-30T08:03:12;101480.91;;;23.80;24.62
5679;BME280;2862;52.560;13.566;2023-04-30T08:13:17;101484.66;;;20.95;26.68
5679;BME280;2862;52.560;13.566;2023-04-30T08:23:21;101484.72;;;21.10;27.45
5679;BME280;2862;52.560;13.566;2023-04-30T08:33:25;101491.25;;;19.48;28.12
5679;BME280;2862;52.560;13.566;2023-04-30T08:43:27;101500.13;;;19.07;30.06
5679;BME280;2862;52.560;13.566;2023-04-30T08:53:35;101496.31;;;18.06;29.65
5679;BME280;2862;52.560;13.566;2023-04-30T09:03:38;101495.09;;;17.29;31.33
5679;BME280;2862;52.560;13.566;2023-04-30T09:13:43;101499.63;;;16.83;31.55
5679;BME280;2862;52.560;13.566;2023-04-30T09:24:04;101495.25;;;17.28;32.60
5679;BME280;2862;52.560;13.566;2023-04-30T09:34:09;101500.44;;;16.93;34.22
5679;BME280;2862;52.560;13.566;2023-04-30T09:44:25;101515.72;;;16.09;35.34
5679;BME280;2862;52.560;13.566;2023-04-30T09:54:31;101507.97;;;16.90;30.96
5679;BME280;2862;52.560;13.566;2023-04-30T10:04:35;101500.66;;;16.63;32.12
5679;BME280;2862;52.560;13.566;2023-04-30T10:14:44;101491.63;;;16.54;30.89
5679;BME280;2862;52.560;13.566;2023-04-30T10:24:49;101493.63;;;16.52;32.83
5679;BME280;2862;52.560;13.566;2023-04-30T10:34:59;101473.41;;;16.19;31.98
5679;BME280;2862;52.560;13.566;2023-04-30T10:45:09;101476.03;;;15.72;33.39
5679;BME280;2862;52.560;13.566;2023-04-30T10:55:15;101464.47;;;16.09;32.38
5679;BME280;2862;52.560;13.566;2023-04-30T11:05:19;101462.66;;;15.80;31.98
5679;BME280;2862;52.560;13.566;2023-04-30T11:15:25;101453.03;;;15.78;34.46
5679;BME280;2862;52.560;13.566;2023-04-30T11:25:38;101451.72;;;15.82;33.73
5679;BME280;2862;52.560;13.566;2023-04-30T11:35:43;101446.31;;;16.01;33.70
5679;BME280;2862;52.560;13.566;2023-04-30T11:45:58;101451.88;;;15.80;33.10
5679;BME280;2862;52.560;13.566;2023-04-30T11:56:06;101443.78;;;15.22;33.95
5679;BME280;2862;52.560;13.566;2023-04-30T12:06:10;101437.06;;;14.87;35.04
5679;BME280;2862;52.560;13.566;2023-04-30T12:16:15;101443.25;;;14.78;35.87
5679;BME280;2862;52.560;13.566;2023-04-30T12:26:19;101434.53;;;15.25;33.62
5679;BME280;2862;52.560;13.566;2023-04-30T12:36:29;101430.13;;;14.95;33.42
5679;BME280;2862;52.560;13.566;2023-04-30T12:46:33;101418.81;;;15.20;34.95
5679;BME280;2862;52.560;13.566;2023-04-30T12:56:38;101406.31;;;15.48;34.68
5679;BME280;2862;52.560;13.566;2023-04-30T13:06:41;101408.75;;;15.61;34.22
5679;BME280;2862;52.560;13.566;2023-04-30T13:16:46;101401.81;;;15.39;32.31
5679;BME280;2862;52.560;13.566;2023-04-30T13:26:49;101400.25;;;15.27;32.30
5679;BME280;2862;52.560;13.566;2023-04-30T13:36:54;101393.56;;;15.50;31.89
5679;BME280;2862;52.560;13.566;2023-04-30T13:46:57;101395.00;;;15.64;29.78
5679;BME280;2862;52.560;13.566;2023-04-30T13:57:01;101389.03;;;15.41;30.11
5679;BME280;2862;52.560;13.566;2023-04-30T14:07:05;101378.53;;;15.28;31.02
5679;BME280;2862;52.560;13.566;2023-04-30T14:17:09;101368.88;;;15.64;29.30
5679;BME280;2862;52.560;13.566;2023-04-30T14:27:12;101353.28;;;15.29;29.62
5679;BME280;2862;52.560;13.566;2023-04-30T14:37:16;101349.03;;;15.56;29.31
5679;BME280;2862;52.560;13.566;2023-04-30T14:47:19;101348.72;;;15.69;27.85
5679;BME280;2862;52.560;13.566;2023-04-30T14:57:24;101351.72;;;15.46;29.13
5679;BME280;2862;52.560;13.566;2023-04-30T15:07:28;101336.63;;;15.82;28.82
5679;BME280;2862;52.560;13.566;2023-04-30T15:17:32;101334.13;;;15.42;28.62
5679;BME280;2862;52.560;13.566;2023-04-30T15:27:37;101338.00;;;15.20;29.30
5679;BME280;2862;52.560;13.566;2023-04-30T15:37:43;101334.59;;;15.08;29.71
5679;BME280;2862;52.560;13.566;2023-04-30T15:47:46;101330.44;;;15.53;29.74
5679;BME280;2862;52.560;13.566;2023-04-30T15:57:51;101328.63;;;15.44;29.11
5679;BME280;2862;52.560;13.566;2023-04-30T16:07:54;101327.91;;;15.41;29.78
5679;BME280;2862;52.560;13.566;2023-04-30T16:17:58;101321.47;;;15.62;28.66
5679;BME280;2862;52.560;13.566;2023-04-30T16:28:01;101318.22;;;15.68;29.29
5679;BME280;2862;52.560;13.566;2023-04-30T16:38:05;101320.38;;;15.55;29.02
5679;BME280;2862;52.560;13.566;2023-04-30T16:48:08;101318.84;;;15.43;28.47
5679;BME280;2862;52.560;13.566;2023-04-30T16:58:12;101305.06;;;15.46;28.65
5679;BME280;2862;52.560;13.566;2023-04-30T17:08:16;101304.38;;;15.44;28.49
5679;BME280;2862;52.560;13.566;2023-04-30T17:18:21;101300.28;;;15.10;28.92
5679;BME280;2862;52.560;13.566;2023-04-30T17:28:24;101309.22;;;14.92;29.14
5679;BME280;2862;52.560;13.566;2023-04-30T17:38:28;101305.41;;;14.75;29.61
5679;BME280;2862;52.560;13.566;2023-04-30T17:48:31;101301.97;;;14.53;29.86
5679;BME280;2862;52.560;13.566;2023-04-30T17:58:35;101305.31;;;14.36;31.16
5679;BME280;2862;52.560;13.566;2023-04-30T18:08:40;101298.84;;;14.08;31.10
5679;BME280;2862;52.560;13.566;2023-04-30T18:18:44;101304.78;;;14.02;31.50
5679;BME280;2862;52.560;13.566;2023-04-30T18:28:47;101304.03;;;13.69;31.91
5679;BME280;2862;52.560;13.566;2023-04-30T18:38:51;101310.00;;;13.42;33.14
5679;BME280;2862;52.560;13.566;2023-04-30T18:48:54;101322.44;;;13.22;33.56
5679;BME280;2862;52.560;13.566;2023-04-30T18:58:59;101331.69;;;12.97;34.58
5679;BME280;2862;52.560;13.566;2023-04-30T19:09:02;101333.84;;;12.60;37.08
5679;BME280;2862;52.560;13.566;2023-04-30T19:19:06;101349.78;;;11.96;42.49
5679;BME280;2862;52.560;13.566;2023-04-30T19:29:09;101342.28;;;11.55;45.10
5679;BME280;2862;52.560;13.566;2023-04-30T19:39:14;101348.69;;;11.52;45.88
5679;BME280;2862;52.560;13.566;2023-04-30T19:49:17;101345.69;;;11.22;47.59
5679;BME280;2862;52.560;13.566;2023-04-30T19:59:22;101354.53;;;11.11;48.20
5679;BME280;2862;52.560;13.566;2023-04-30T20:09:27;101357.28;;;10.98;49.68
5679;BME280;2862;52.560;13.566;2023-04-30T20:19:32;101355.03;;;10.81;50.69
5679;BME280;2862;52.560;13.566;2023-04-30T20:29:35;101351.50;;;10.56;51.76
5679;BME280;2862;52.560;13.566;2023-04-30T20:39:42;101354.81;;;10.47;51.17
5679;BME280;2862;52.560;13.566;2023-04-30T20:49:45;101359.69;;;10.17;53.73
5679;BME280;2862;52.560;13.566;2023-04-30T20:59:49;101354.22;;;10.18;53.60
5679;BME280;2862;52.560;13.566;2023-04-30T21:09:52;101366.78;;;9.92;54.34
5679;BME280;2862;52.560;13.566;2023-04-30T21:19:58;101357.34;;;9.99;54.86
5679;BME280;2862;52.560;13.566;2023-04-30T21:30:01;101364.63;;;9.72;55.57
5679;BME280;2862;52.560;13.566;2023-04-30T21:40:07;101359.91;;;9.63;55.54
5679;BME280;2862;52.560;13.566;2023-04-30T21:50:11;101354.91;;;9.71;55.17
5679;BME280;2862;52.560;13.566;2023-04-30T22:00:15;101360.38;;;9.69;55.59
5679;BME280;2862;52.560;13.566;2023-04-30T22:10:21;101360.22;;;9.45;56.46
5679;BME280;2862;52.560;13.566;2023-04-30T22:20:26;101362.25;;;9.29;56.68
5679;BME280;2862;52.560;13.566;2023-04-30T22:30:28;101355.59;;;9.22;57.46
5679;BME280;2862;52.560;13.566;2023-04-30T22:40:36;101355.84;;;9.04;58.86
5679;BME280;2862;52.560;13.566;2023-04-30T22:50:40;101352.88;;;8.96;58.48
5679;BME280;2862;52.560;13.566;2023-04-30T23:00:44;101341.78;;;9.02;58.27
5679;BME280;2862;52.560;13.566;2023-04-30T23:10:47;101341.03;;;8.46;61.93
5679;BME280;2862;52.560;13.566;2023-04-30T23:20:53;101333.34;;;8.13;63.43
5679;BME280;2862;52.560;13.566;2023-04-30T23:30:56;101329.34;;;8.06;63.73
5679;BME280;2862;52.560;13.566;2023-04-30T23:41:01;101309.13;;;7.75;65.05
5679;BME280;2862;52.560;13.566;2023-04-30T23:51:04;101313.09;;;7.68;65.32
